Aérodrome :
LOGIN :

S'inscrire | Disclaimer

   EN    FR    IT 

 










Légende :    VFR   VFR Marginal   IFR   IFR Intensif   IFR Très Intensif
Visi : 
Plafond : 
>= 8 km
>= 3000ft
5 à 8 km
1000 à 3000 ft
1500m à 5 km
500 à 1000 ft
800 à 1500m
200 à 500 ft
< 800m
< 200 ft
Symboles :   Orages  Brouillard  Fortes neiges  Fortes précipitations  Vent > 20 kt
SIGMETs :   Divers  Orages  Givrage  Turbulence  Onde Orograph.  Cendres Volcan.







- Altitude de l'aérodrome : 13 ft
- Code IATA : LYX
- Voir les cartes d'approche


EGMD - Lydd

DERNIER METAR :
  • 191120Z 24009KT 9000 SCT003 BKN010 09/08 Q1017

METARs EXPIRÉS :
  • 191050Z 23009KT 9000 -RA SCT003 BKN007 09/08 Q1017
  • 191020Z 22010KT 5000 -RA BKN002 09/08 Q1017
  • 190950Z 21011KT 5000 -RADZ OVC003 08/08 Q1017
  • 190920Z 20010KT 6000 -RADZ BKN003 08/08 Q1017
  • 190850Z 20010KT 4500 -RADZ BKN003 08/08 Q1017 REDZ

TAF TAF EGMD
Valide du 19 à 12h jusqu'au 19 à 21h UTC


191103Z 1912/1921 21008KT 8000 SCT002 BKN004
BECMG 1912/1915 33010KT
TEMPO 1912/1921 2500 DZ BR BKN005
ATIS : +44 1797 322 422
Pas de NOTAMs connus pour ce terrain.



MET'MAP, la Météo Aéronautique d'un coup d'oeil ! - Copyright ORBIFLY Décembre 2007 - Disclaimer

ORBIFLY MET'MAP TEAM :

Programmation & Développement : Alexandra Zaïnal
Conception & Développement : Baudouin d'Aumeries
Co-Programmation & Développement : Marc-Olivier Méhu
Soutien technique & logistique : Manuel Goepfert

Contact : metmap@orbifly.com




SOURCES & CREDITS :

   NOAA